sensor_id;sensor_type;location;lat;lon;timestamp;temperature;humidity
37310;DHT22;23195;47.744;7.358;2023-04-28T00:00:56;14.10;99.90
37310;DHT22;23195;47.744;7.358;2023-04-28T00:03:22;14.00;99.90
37310;DHT22;23195;47.744;7.358;2023-04-28T00:05:51;14.00;99.90
37310;DHT22;23195;47.744;7.358;2023-04-28T00:08:17;13.90;99.90
37310;DHT22;23195;47.744;7.358;2023-04-28T00:10:46;13.90;99.90
37310;DHT22;23195;47.744;7.358;2023-04-28T00:13:11;13.90;99.90
37310;DHT22;23195;47.744;7.358;2023-04-28T00:15:40;13.60;99.90
37310;DHT22;23195;47.744;7.358;2023-04-28T00:18:06;13.90;99.90
37310;DHT22;23195;47.744;7.358;2023-04-28T00:20:32;13.90;99.90
37310;DHT22;23195;47.744;7.358;2023-04-28T00:22:58;13.90;99.90
37310;DHT22;23195;47.744;7.358;2023-04-28T00:25:23;13.90;99.90
37310;DHT22;23195;47.744;7.358;2023-04-28T00:27:49;13.90;99.90
37310;DHT22;23195;47.744;7.358;2023-04-28T00:30:15;13.90;99.90
37310;DHT22;23195;47.744;7.358;2023-04-28T00:32:41;13.90;99.90
37310;DHT22;23195;47.744;7.358;2023-04-28T00:35:07;12.70;99.90
37310;DHT22;23195;47.744;7.358;2023-04-28T00:37:37;13.90;99.90
37310;DHT22;23195;47.744;7.358;2023-04-28T00:40:03;13.90;99.90
37310;DHT22;23195;47.744;7.358;2023-04-28T00:42:29;13.50;99.90
37310;DHT22;23195;47.744;7.358;2023-04-28T00:44:56;13.90;99.90
37310;DHT22;23195;47.744;7.358;2023-04-28T00:47:22;14.00;99.90
37310;DHT22;23195;47.744;7.358;2023-04-28T00:49:50;14.00;99.90
37310;DHT22;23195;47.744;7.358;2023-04-28T00:52:16;13.90;99.90
37310;DHT22;23195;47.744;7.358;2023-04-28T00:54:45;14.00;99.90
37310;DHT22;23195;47.744;7.358;2023-04-28T00:57:12;14.00;99.90
37310;DHT22;23195;47.744;7.358;2023-04-28T00:59:38;14.00;99.90
37310;DHT22;23195;47.744;7.358;2023-04-28T01:02:07;14.10;99.90
37310;DHT22;23195;47.744;7.358;2023-04-28T01:04:33;14.10;99.90
37310;DHT22;23195;47.744;7.358;2023-04-28T01:06:59;14.20;99.90
37310;DHT22;23195;47.744;7.358;2023-04-28T01:09:26;14.20;99.90
37310;DHT22;23195;47.744;7.358;2023-04-28T01:11:52;14.20;99.90
37310;DHT22;23195;47.744;7.358;2023-04-28T01:14:17;14.20;99.90
37310;DHT22;23195;47.744;7.358;2023-04-28T01:16:43;14.20;99.90
37310;DHT22;23195;47.744;7.358;2023-04-28T01:19:20;14.30;99.90
37310;DHT22;23195;47.744;7.358;2023-04-28T01:21:49;14.20;99.90
37310;DHT22;23195;47.744;7.358;2023-04-28T01:24:16;14.30;99.90
37310;DHT22;23195;47.744;7.358;2023-04-28T01:26:45;14.30;99.90
37310;DHT22;23195;47.744;7.358;2023-04-28T01:29:11;14.20;99.90
37310;DHT22;23195;47.744;7.358;2023-04-28T01:31:36;14.20;99.90
37310;DHT22;23195;47.744;7.358;2023-04-28T01:34:02;14.20;99.90
37310;DHT22;23195;47.744;7.358;2023-04-28T01:36:28;14.20;99.90
37310;DHT22;23195;47.744;7.358;2023-04-28T01:38:54;14.10;99.90
37310;DHT22;23195;47.744;7.358;2023-04-28T01:41:20;14.10;99.90
37310;DHT22;23195;47.744;7.358;2023-04-28T01:43:46;14.10;99.90
37310;DHT22;23195;47.744;7.358;2023-04-28T01:46:12;14.10;99.90
37310;DHT22;23195;47.744;7.358;2023-04-28T01:48:41;14.10;99.90
37310;DHT22;23195;47.744;7.358;2023-04-28T01:51:09;14.10;99.90
37310;DHT22;23195;47.744;7.358;2023-04-28T01:53:46;14.00;99.90
37310;DHT22;23195;47.744;7.358;2023-04-28T01:56:12;14.00;99.90
37310;DHT22;23195;47.744;7.358;2023-04-28T01:58:41;14.00;99.90
37310;DHT22;23195;47.744;7.358;2023-04-28T02:01:06;14.10;99.90
37310;DHT22;23195;47.744;7.358;2023-04-28T02:03:35;13.90;99.90
37310;DHT22;23195;47.744;7.358;2023-04-28T02:06:10;13.80;99.90
37310;DHT22;23195;47.744;7.358;2023-04-28T02:08:43;13.80;99.90
37310;DHT22;23195;47.744;7.358;2023-04-28T02:11:12;13.70;99.90
37310;DHT22;23195;47.744;7.358;2023-04-28T02:13:40;13.40;99.90
37310;DHT22;23195;47.744;7.358;2023-04-28T02:16:06;13.60;99.90
37310;DHT22;23195;47.744;7.358;2023-04-28T02:18:41;13.70;99.90
37310;DHT22;23195;47.744;7.358;2023-04-28T02:21:20;13.40;99.90
37310;DHT22;23195;47.744;7.358;2023-04-28T02:24:02;13.70;99.90
37310;DHT22;23195;47.744;7.358;2023-04-28T02:26:32;13.60;99.90
37310;DHT22;23195;47.744;7.358;2023-04-28T02:28:58;13.70;99.90
37310;DHT22;23195;47.744;7.358;2023-04-28T02:31:23;13.60;99.90
37310;DHT22;23195;47.744;7.358;2023-04-28T02:33:49;13.60;99.90
37310;DHT22;23195;47.744;7.358;2023-04-28T02:36:15;13.50;99.90
37310;DHT22;23195;47.744;7.358;2023-04-28T02:38:41;13.50;99.90
37310;DHT22;23195;47.744;7.358;2023-04-28T02:41:07;13.40;99.90
37310;DHT22;23195;47.744;7.358;2023-04-28T02:43:41;13.40;99.90
37310;DHT22;23195;47.744;7.358;2023-04-28T02:46:09;13.40;99.90
37310;DHT22;23195;47.744;7.358;2023-04-28T02:48:41;13.40;99.90
37310;DHT22;23195;47.744;7.358;2023-04-28T02:51:10;13.40;99.90
37310;DHT22;23195;47.744;7.358;2023-04-28T02:53:38;12.10;99.90
37310;DHT22;23195;47.744;7.358;2023-04-28T02:56:05;13.40;99.90
37310;DHT22;23195;47.744;7.358;2023-04-28T02:58:31;13.40;99.90
37310;DHT22;23195;47.744;7.358;2023-04-28T03:00:57;13.30;99.90
37310;DHT22;23195;47.744;7.358;2023-04-28T03:03:22;13.30;99.90
37310;DHT22;23195;47.744;7.358;2023-04-28T03:05:48;13.20;99.90
37310;DHT22;23195;47.744;7.358;2023-04-28T03:08:14;13.20;99.90
37310;DHT22;23195;47.744;7.358;2023-04-28T03:10:47;13.20;99.90
37310;DHT22;23195;47.744;7.358;2023-04-28T03:13:13;13.10;99.90
37310;DHT22;23195;47.744;7.358;2023-04-28T03:15:39;13.00;99.90
37310;DHT22;23195;47.744;7.358;2023-04-28T03:18:05;13.10;99.90
37310;DHT22;23195;47.744;7.358;2023-04-28T03:20:31;13.10;99.90
37310;DHT22;23195;47.744;7.358;2023-04-28T03:23:00;13.10;99.90
37310;DHT22;23195;47.744;7.358;2023-04-28T03:25:27;13.20;99.90
37310;DHT22;23195;47.744;7.358;2023-04-28T03:27:52;13.20;99.90
37310;DHT22;23195;47.744;7.358;2023-04-28T03:30:21;13.20;99.90
37310;DHT22;23195;47.744;7.358;2023-04-28T03:32:47;13.20;99.90
37310;DHT22;23195;47.744;7.358;2023-04-28T03:35:13;13.50;99.90
37310;DHT22;23195;47.744;7.358;2023-04-28T03:37:39;13.20;99.90
37310;DHT22;23195;47.744;7.358;2023-04-28T03:40:05;13.20;99.90
37310;DHT22;23195;47.744;7.358;2023-04-28T03:42:31;13.30;99.90
37310;DHT22;23195;47.744;7.358;2023-04-28T03:44:57;12.90;99.90
37310;DHT22;23195;47.744;7.358;2023-04-28T03:47:23;13.20;99.90
37310;DHT22;23195;47.744;7.358;2023-04-28T03:49:49;13.30;99.90
37310;DHT22;23195;47.744;7.358;2023-04-28T03:52:15;13.30;99.90
37310;DHT22;23195;47.744;7.358;2023-04-28T03:54:40;13.40;99.90
37310;DHT22;23195;47.744;7.358;2023-04-28T03:57:06;13.30;99.90
37310;DHT22;23195;47.744;7.358;2023-04-28T03:59:34;13.30;99.90
37310;DHT22;23195;47.744;7.358;2023-04-28T04:02:00;13.30;99.90
37310;DHT22;23195;47.744;7.358;2023-04-28T04:04:29;13.30;99.90
37310;DHT22;23195;47.744;7.358;2023-04-28T04:06:55;13.30;99.90
37310;DHT22;23195;47.744;7.358;2023-04-28T04:09:21;13.20;99.90
37310;DHT22;23195;47.744;7.358;2023-04-28T04:11:46;13.20;99.90
37310;DHT22;23195;47.744;7.358;2023-04-28T04:14:12;13.10;99.90
37310;DHT22;23195;47.744;7.358;2023-04-28T04:16:38;13.10;99.90
37310;DHT22;23195;47.744;7.358;2023-04-28T04:19:04;13.00;99.90
37310;DHT22;23195;47.744;7.358;2023-04-28T04:21:30;13.10;99.90
37310;DHT22;23195;47.744;7.358;2023-04-28T04:23:59;13.00;99.90
37310;DHT22;23195;47.744;7.358;2023-04-28T04:26:25;12.90;99.90
37310;DHT22;23195;47.744;7.358;2023-04-28T04:28:51;12.90;99.90
37310;DHT22;23195;47.744;7.358;2023-04-28T04:31:20;12.80;99.90
37310;DHT22;23195;47.744;7.358;2023-04-28T04:33:47;12.80;99.90
37310;DHT22;23195;47.744;7.358;2023-04-28T04:36:16;12.80;99.90
37310;DHT22;23195;47.744;7.358;2023-04-28T04:38:42;12.80;99.90
37310;DHT22;23195;47.744;7.358;2023-04-28T04:41:07;12.80;99.90
37310;DHT22;23195;47.744;7.358;2023-04-28T04:43:33;12.80;99.90
37310;DHT22;23195;47.744;7.358;2023-04-28T04:45:59;12.90;99.90
37310;DHT22;23195;47.744;7.358;2023-04-28T04:48:28;12.80;99.90
37310;DHT22;23195;47.744;7.358;2023-04-28T04:50:54;12.90;99.90
37310;DHT22;23195;47.744;7.358;2023-04-28T04:53:20;12.90;99.90
37310;DHT22;23195;47.744;7.358;2023-04-28T04:55:48;12.90;99.90
37310;DHT22;23195;47.744;7.358;2023-04-28T04:58:17;13.00;99.90
37310;DHT22;23195;47.744;7.358;2023-04-28T05:00:43;12.90;99.90
37310;DHT22;23195;47.744;7.358;2023-04-28T05:03:09;12.90;99.90
37310;DHT22;23195;47.744;7.358;2023-04-28T05:05:36;13.00;99.90
37310;DHT22;23195;47.744;7.358;2023-04-28T05:08:02;12.90;99.90
37310;DHT22;23195;47.744;7.358;2023-04-28T05:10:28;13.00;99.90
37310;DHT22;23195;47.744;7.358;2023-04-28T05:12:54;13.10;99.90
37310;DHT22;23195;47.744;7.358;2023-04-28T05:15:19;13.00;99.90
37310;DHT22;23195;47.744;7.358;2023-04-28T05:17:48;13.10;99.90
37310;DHT22;23195;47.744;7.358;2023-04-28T05:20:14;13.10;99.90
37310;DHT22;23195;47.744;7.358;2023-04-28T05:22:40;13.10;99.90
37310;DHT22;23195;47.744;7.358;2023-04-28T05:25:09;13.10;99.90
37310;DHT22;23195;47.744;7.358;2023-04-28T05:27:35;13.20;99.90
37310;DHT22;23195;47.744;7.358;2023-04-28T05:30:05;13.20;99.90
37310;DHT22;23195;47.744;7.358;2023-04-28T05:32:31;13.10;99.90
37310;DHT22;23195;47.744;7.358;2023-04-28T05:34:59;13.10;99.90
37310;DHT22;23195;47.744;7.358;2023-04-28T05:37:25;13.10;99.90
37310;DHT22;23195;47.744;7.358;2023-04-28T05:39:51;13.10;99.90
37310;DHT22;23195;47.744;7.358;2023-04-28T05:42:17;13.20;99.90
37310;DHT22;23195;47.744;7.358;2023-04-28T05:44:43;13.20;99.90
37310;DHT22;23195;47.744;7.358;2023-04-28T05:47:12;13.20;99.90
37310;DHT22;23195;47.744;7.358;2023-04-28T05:49:40;13.30;99.90
37310;DHT22;23195;47.744;7.358;2023-04-28T05:52:06;13.20;99.90
37310;DHT22;23195;47.744;7.358;2023-04-28T05:54:32;13.30;99.90
37310;DHT22;23195;47.744;7.358;2023-04-28T05:57:02;13.30;99.90
37310;DHT22;23195;47.744;7.358;2023-04-28T05:59:27;14.00;99.90
37310;DHT22;23195;47.744;7.358;2023-04-28T06:01:55;13.40;99.90
37310;DHT22;23195;47.744;7.358;2023-04-28T06:04:20;13.40;99.90
37310;DHT22;23195;47.744;7.358;2023-04-28T06:07:02;13.40;99.90
37310;DHT22;23195;47.744;7.358;2023-04-28T06:09:28;13.40;99.90
37310;DHT22;23195;47.744;7.358;2023-04-28T06:11:54;13.60;99.90
37310;DHT22;23195;47.744;7.358;2023-04-28T06:14:21;13.60;99.90
37310;DHT22;23195;47.744;7.358;2023-04-28T06:16:50;13.70;99.90
37310;DHT22;23195;47.744;7.358;2023-04-28T06:19:15;13.80;99.90
37310;DHT22;23195;47.744;7.358;2023-04-28T06:21:44;13.80;99.90
37310;DHT22;23195;47.744;7.358;2023-04-28T06:24:32;13.80;99.90
37310;DHT22;23195;47.744;7.358;2023-04-28T06:27:26;13.80;99.90
37310;DHT22;23195;47.744;7.358;2023-04-28T06:30:13;13.90;99.90
37310;DHT22;23195;47.744;7.358;2023-04-28T06:36:10;14.00;99.90
37310;DHT22;23195;47.744;7.358;2023-04-28T06:39:28;14.00;99.90
37310;DHT22;23195;47.744;7.358;2023-04-28T06:52:18;14.10;99.90
37310;DHT22;23195;47.744;7.358;2023-04-28T06:58:12;14.10;99.90
37310;DHT22;23195;47.744;7.358;2023-04-28T07:00:38;14.10;99.90
37310;DHT22;23195;47.744;7.358;2023-04-28T07:03:04;14.10;99.90
37310;DHT22;23195;47.744;7.358;2023-04-28T07:05:32;14.10;99.90
37310;DHT22;23195;47.744;7.358;2023-04-28T07:08:03;14.20;99.90
37310;DHT22;23195;47.744;7.358;2023-04-28T07:10:30;14.20;99.90
37310;DHT22;23195;47.744;7.358;2023-04-28T07:13:16;14.20;99.90
37310;DHT22;23195;47.744;7.358;2023-04-28T07:15:42;14.00;99.90
37310;DHT22;23195;47.744;7.358;2023-04-28T07:20:54;15.00;99.90
37310;DHT22;23195;47.744;7.358;2023-04-28T07:23:20;14.50;99.90
37310;DHT22;23195;47.744;7.358;2023-04-28T07:25:45;14.50;99.90
37310;DHT22;23195;47.744;7.358;2023-04-28T07:28:14;15.20;99.90
37310;DHT22;23195;47.744;7.358;2023-04-28T07:30:39;14.80;99.90
37310;DHT22;23195;47.744;7.358;2023-04-28T07:33:08;14.90;99.90
37310;DHT22;23195;47.744;7.358;2023-04-28T07:35:36;15.10;99.90
37310;DHT22;23195;47.744;7.358;2023-04-28T07:38:08;15.30;99.90
37310;DHT22;23195;47.744;7.358;2023-04-28T07:40:43;15.50;99.90
37310;DHT22;23195;47.744;7.358;2023-04-28T07:43:09;15.60;99.90
37310;DHT22;23195;47.744;7.358;2023-04-28T07:45:41;15.70;99.90
37310;DHT22;23195;47.744;7.358;2023-04-28T07:48:07;15.80;99.90
37310;DHT22;23195;47.744;7.358;2023-04-28T07:50:46;15.80;99.90
37310;DHT22;23195;47.744;7.358;2023-04-28T07:53:17;15.80;99.90
37310;DHT22;23195;47.744;7.358;2023-04-28T07:55:43;16.10;99.90
37310;DHT22;23195;47.744;7.358;2023-04-28T07:58:15;15.90;99.90
37310;DHT22;23195;47.744;7.358;2023-04-28T08:00:43;15.80;99.90
37310;DHT22;23195;47.744;7.358;2023-04-28T08:03:09;15.80;99.90
37310;DHT22;23195;47.744;7.358;2023-04-28T08:05:42;15.70;99.90
37310;DHT22;23195;47.744;7.358;2023-04-28T08:08:09;15.60;99.90
37310;DHT22;23195;47.744;7.358;2023-04-28T08:10:35;15.60;99.90
37310;DHT22;23195;47.744;7.358;2023-04-28T08:13:10;15.50;99.90
37310;DHT22;23195;47.744;7.358;2023-04-28T08:15:36;15.40;99.90
37310;DHT22;23195;47.744;7.358;2023-04-28T08:18:02;15.30;99.90
37310;DHT22;23195;47.744;7.358;2023-04-28T08:20:28;15.30;99.90
37310;DHT22;23195;47.744;7.358;2023-04-28T08:22:54;15.30;99.90
37310;DHT22;23195;47.744;7.358;2023-04-28T08:25:23;15.30;99.90
37310;DHT22;23195;47.744;7.358;2023-04-28T08:27:51;15.10;99.90
37310;DHT22;23195;47.744;7.358;2023-04-28T08:30:20;15.40;99.90
37310;DHT22;23195;47.744;7.358;2023-04-28T08:32:46;15.40;99.90
37310;DHT22;23195;47.744;7.358;2023-04-28T08:35:12;15.40;99.90
37310;DHT22;23195;47.744;7.358;2023-04-28T08:37:40;15.40;99.90
37310;DHT22;23195;47.744;7.358;2023-04-28T08:40:06;15.60;99.90
37310;DHT22;23195;47.744;7.358;2023-04-28T08:42:36;15.70;99.90
37310;DHT22;23195;47.744;7.358;2023-04-28T08:45:03;15.80;99.90
37310;DHT22;23195;47.744;7.358;2023-04-28T08:47:42;16.00;99.90
37310;DHT22;23195;47.744;7.358;2023-04-28T08:50:13;16.00;99.90
37310;DHT22;23195;47.744;7.358;2023-04-28T08:52:40;16.20;99.90
37310;DHT22;23195;47.744;7.358;2023-04-28T08:55:13;16.30;99.90
37310;DHT22;23195;47.744;7.358;2023-04-28T08:57:51;16.30;99.90
37310;DHT22;23195;47.744;7.358;2023-04-28T09:00:21;16.40;99.90
37310;DHT22;23195;47.744;7.358;2023-04-28T09:03:00;16.20;99.90
37310;DHT22;23195;47.744;7.358;2023-04-28T09:05:26;16.00;99.90
37310;DHT22;23195;47.744;7.358;2023-04-28T09:07:52;16.10;99.90
37310;DHT22;23195;47.744;7.358;2023-04-28T09:10:19;16.10;99.90
37310;DHT22;23195;47.744;7.358;2023-04-28T09:12:51;16.40;99.90
37310;DHT22;23195;47.744;7.358;2023-04-28T09:15:37;16.60;99.90
37310;DHT22;23195;47.744;7.358;2023-04-28T09:18:06;16.70;99.90
37310;DHT22;23195;47.744;7.358;2023-04-28T09:20:33;16.80;99.90
37310;DHT22;23195;47.744;7.358;2023-04-28T09:23:17;16.80;99.90
37310;DHT22;23195;47.744;7.358;2023-04-28T09:26:03;16.80;99.90
37310;DHT22;23195;47.744;7.358;2023-04-28T09:28:37;16.70;99.90
37310;DHT22;23195;47.744;7.358;2023-04-28T09:31:55;16.60;99.90
37310;DHT22;23195;47.744;7.358;2023-04-28T09:37:16;16.50;99.90
37310;DHT22;23195;47.744;7.358;2023-04-28T09:39:53;16.50;99.90
37310;DHT22;23195;47.744;7.358;2023-04-28T09:42:43;16.60;99.90
37310;DHT22;23195;47.744;7.358;2023-04-28T09:45:11;16.60;99.90
37310;DHT22;23195;47.744;7.358;2023-04-28T09:47:39;16.70;99.90
37310;DHT22;23195;47.744;7.358;2023-04-28T09:50:13;16.70;99.90
37310;DHT22;23195;47.744;7.358;2023-04-28T09:55:45;17.10;99.90
37310;DHT22;23195;47.744;7.358;2023-04-28T09:58:15;17.60;99.90
37310;DHT22;23195;47.744;7.358;2023-04-28T10:00:59;17.80;99.90
37310;DHT22;23195;47.744;7.358;2023-04-28T10:03:45;18.00;99.90
37310;DHT22;23195;47.744;7.358;2023-04-28T10:06:16;18.20;99.90
37310;DHT22;23195;47.744;7.358;2023-04-28T10:08:44;18.40;99.90
37310;DHT22;23195;47.744;7.358;2023-04-28T10:11:16;18.50;99.90
37310;DHT22;23195;47.744;7.358;2023-04-28T10:13:52;18.60;99.90
37310;DHT22;23195;47.744;7.358;2023-04-28T10:17:07;18.60;99.90
37310;DHT22;23195;47.744;7.358;2023-04-28T10:19:33;18.10;99.90
37310;DHT22;23195;47.744;7.358;2023-04-28T10:25:28;17.80;99.90
37310;DHT22;23195;47.744;7.358;2023-04-28T10:27:58;18.00;99.90
37310;DHT22;23195;47.744;7.358;2023-04-28T10:30:30;18.30;99.90
37310;DHT22;23195;47.744;7.358;2023-04-28T10:33:22;18.70;99.90
37310;DHT22;23195;47.744;7.358;2023-04-28T10:35:57;19.00;99.90
37310;DHT22;23195;47.744;7.358;2023-04-28T10:38:25;19.40;99.90
37310;DHT22;23195;47.744;7.358;2023-04-28T10:40:54;19.60;99.90
37310;DHT22;23195;47.744;7.358;2023-04-28T10:43:33;19.60;99.90
37310;DHT22;23195;47.744;7.358;2023-04-28T10:46:03;19.70;99.90
37310;DHT22;23195;47.744;7.358;2023-04-28T10:59:27;20.40;99.90
37310;DHT22;23195;47.744;7.358;2023-04-28T11:01:54;20.40;99.90
37310;DHT22;23195;47.744;7.358;2023-04-28T11:04:22;20.50;99.90
37310;DHT22;23195;47.744;7.358;2023-04-28T11:07:14;20.70;99.90
37310;DHT22;23195;47.744;7.358;2023-04-28T11:12:20;20.90;99.90
37310;DHT22;23195;47.744;7.358;2023-04-28T11:14:50;20.70;99.90
37310;DHT22;23195;47.744;7.358;2023-04-28T11:17:16;20.70;99.90
37310;DHT22;23195;47.744;7.358;2023-04-28T11:19:47;20.80;99.90
37310;DHT22;23195;47.744;7.358;2023-04-28T11:22:31;20.90;99.90
37310;DHT22;23195;47.744;7.358;2023-04-28T11:25:46;20.70;99.90
37310;DHT22;23195;47.744;7.358;2023-04-28T11:28:22;20.90;99.90
37310;DHT22;23195;47.744;7.358;2023-04-28T11:31:46;21.50;99.90
37310;DHT22;23195;47.744;7.358;2023-04-28T11:34:29;22.00;99.90
37310;DHT22;23195;47.744;7.358;2023-04-28T11:40:32;21.70;99.90
37310;DHT22;23195;47.744;7.358;2023-04-28T11:42:58;21.80;99.90
37310;DHT22;23195;47.744;7.358;2023-04-28T11:45:52;21.70;99.90
37310;DHT22;23195;47.744;7.358;2023-04-28T11:48:34;21.50;99.90
37310;DHT22;23195;47.744;7.358;2023-04-28T11:51:08;21.10;99.90
37310;DHT22;23195;47.744;7.358;2023-04-28T11:53:44;20.80;99.90
37310;DHT22;23195;47.744;7.358;2023-04-28T11:56:13;20.70;99.90
37310;DHT22;23195;47.744;7.358;2023-04-28T11:58:38;20.70;99.90
37310;DHT22;23195;47.744;7.358;2023-04-28T12:01:11;20.90;99.90
37310;DHT22;23195;47.744;7.358;2023-04-28T12:03:53;20.90;99.90
37310;DHT22;23195;47.744;7.358;2023-04-28T12:06:20;21.00;99.90
37310;DHT22;23195;47.744;7.358;2023-04-28T12:08:46;20.90;99.90
37310;DHT22;23195;47.744;7.358;2023-04-28T12:11:14;21.10;99.90
37310;DHT22;23195;47.744;7.358;2023-04-28T12:13:42;21.30;99.90
37310;DHT22;23195;47.744;7.358;2023-04-28T12:16:10;21.40;99.90
37310;DHT22;23195;47.744;7.358;2023-04-28T12:18:37;21.30;99.90
37310;DHT22;23195;47.744;7.358;2023-04-28T12:21:04;21.70;99.90
37310;DHT22;23195;47.744;7.358;2023-04-28T12:23:44;22.00;99.90
37310;DHT22;23195;47.744;7.358;2023-04-28T12:26:10;22.00;99.90
37310;DHT22;23195;47.744;7.358;2023-04-28T12:28:36;21.90;99.90
37310;DHT22;23195;47.744;7.358;2023-04-28T12:31:06;22.00;99.90
37310;DHT22;23195;47.744;7.358;2023-04-28T12:33:36;22.10;99.90
37310;DHT22;23195;47.744;7.358;2023-04-28T12:36:03;22.10;99.90
37310;DHT22;23195;47.744;7.358;2023-04-28T12:38:29;22.00;99.90
37310;DHT22;23195;47.744;7.358;2023-04-28T12:40:55;22.10;99.90
37310;DHT22;23195;47.744;7.358;2023-04-28T12:43:22;22.30;99.90
37310;DHT22;23195;47.744;7.358;2023-04-28T12:45:54;22.20;99.90
37310;DHT22;23195;47.744;7.358;2023-04-28T12:48:22;22.10;99.90
37310;DHT22;23195;47.744;7.358;2023-04-28T12:50:49;21.80;99.90
37310;DHT22;23195;47.744;7.358;2023-04-28T12:53:17;21.80;99.90
37310;DHT22;23195;47.744;7.358;2023-04-28T12:55:43;21.50;99.90
37310;DHT22;23195;47.744;7.358;2023-04-28T12:58:08;21.40;99.90
37310;DHT22;23195;47.744;7.358;2023-04-28T13:00:34;21.20;99.90
37310;DHT22;23195;47.744;7.358;2023-04-28T13:03:00;21.20;99.90
37310;DHT22;23195;47.744;7.358;2023-04-28T13:05:26;20.90;99.90
37310;DHT22;23195;47.744;7.358;2023-04-28T13:07:52;20.80;99.90
37310;DHT22;23195;47.744;7.358;2023-04-28T13:10:18;20.70;99.90
37310;DHT22;23195;47.744;7.358;2023-04-28T13:12:45;20.70;99.90
37310;DHT22;23195;47.744;7.358;2023-04-28T13:15:11;20.60;99.90
37310;DHT22;23195;47.744;7.358;2023-04-28T13:17:37;20.40;99.90
37310;DHT22;23195;47.744;7.358;2023-04-28T13:20:06;20.30;99.90
37310;DHT22;23195;47.744;7.358;2023-04-28T13:22:35;20.30;99.90
37310;DHT22;23195;47.744;7.358;2023-04-28T13:25:01;20.20;99.90
37310;DHT22;23195;47.744;7.358;2023-04-28T13:27:27;20.00;99.90
37310;DHT22;23195;47.744;7.358;2023-04-28T13:29:54;19.90;99.90
37310;DHT22;23195;47.744;7.358;2023-04-28T13:32:23;19.90;99.90
37310;DHT22;23195;47.744;7.358;2023-04-28T13:34:49;19.80;99.90
37310;DHT22;23195;47.744;7.358;2023-04-28T13:37:15;19.70;99.90
37310;DHT22;23195;47.744;7.358;2023-04-28T13:39:41;19.60;99.90
37310;DHT22;23195;47.744;7.358;2023-04-28T13:42:07;19.70;99.90
37310;DHT22;23195;47.744;7.358;2023-04-28T13:44:32;19.70;99.90
37310;DHT22;23195;47.744;7.358;2023-04-28T13:46:58;19.80;99.90
37310;DHT22;23195;47.744;7.358;2023-04-28T13:49:25;19.80;99.90
37310;DHT22;23195;47.744;7.358;2023-04-28T13:51:50;20.00;99.90
37310;DHT22;23195;47.744;7.358;2023-04-28T13:54:16;20.30;99.90
37310;DHT22;23195;47.744;7.358;2023-04-28T13:56:45;20.50;99.90
37310;DHT22;23195;47.744;7.358;2023-04-28T13:59:15;20.70;99.90
37310;DHT22;23195;47.744;7.358;2023-04-28T14:01:41;20.70;99.90
37310;DHT22;23195;47.744;7.358;2023-04-28T14:04:06;20.60;99.90
37310;DHT22;23195;47.744;7.358;2023-04-28T14:06:32;20.60;99.90
37310;DHT22;23195;47.744;7.358;2023-04-28T14:08:58;20.30;99.90
37310;DHT22;23195;47.744;7.358;2023-04-28T14:11:30;20.30;99.90
37310;DHT22;23195;47.744;7.358;2023-04-28T14:13:56;20.20;99.90
37310;DHT22;23195;47.744;7.358;2023-04-28T14:16:21;20.20;99.90
37310;DHT22;23195;47.744;7.358;2023-04-28T14:19:05;20.30;99.90
37310;DHT22;23195;47.744;7.358;2023-04-28T14:21:42;20.40;99.90
37310;DHT22;23195;47.744;7.358;2023-04-28T14:24:11;20.40;99.90
37310;DHT22;23195;47.744;7.358;2023-04-28T14:29:35;20.60;99.90
37310;DHT22;23195;47.744;7.358;2023-04-28T14:32:01;20.60;99.90
37310;DHT22;23195;47.744;7.358;2023-04-28T14:34:27;20.70;99.90
37310;DHT22;23195;47.744;7.358;2023-04-28T14:36:53;20.80;99.90
37310;DHT22;23195;47.744;7.358;2023-04-28T14:39:18;20.90;99.90
37310;DHT22;23195;47.744;7.358;2023-04-28T14:41:47;20.90;99.90
37310;DHT22;23195;47.744;7.358;2023-04-28T14:44:13;21.00;99.90
37310;DHT22;23195;47.744;7.358;2023-04-28T14:46:39;21.00;99.90
37310;DHT22;23195;47.744;7.358;2023-04-28T14:49:05;20.70;99.90
37310;DHT22;23195;47.744;7.358;2023-04-28T14:51:31;20.70;99.90
37310;DHT22;23195;47.744;7.358;2023-04-28T14:53:56;20.60;99.90
37310;DHT22;23195;47.744;7.358;2023-04-28T14:56:23;20.50;99.90
37310;DHT22;23195;47.744;7.358;2023-04-28T14:58:48;20.50;99.90
37310;DHT22;23195;47.744;7.358;2023-04-28T15:01:14;20.40;99.90
37310;DHT22;23195;47.744;7.358;2023-04-28T15:03:42;20.30;99.90
37310;DHT22;23195;47.744;7.358;2023-04-28T15:06:07;20.10;99.90
37310;DHT22;23195;47.744;7.358;2023-04-28T15:08:33;20.00;99.90
37310;DHT22;23195;47.744;7.358;2023-04-28T15:11:02;20.10;99.90
37310;DHT22;23195;47.744;7.358;2023-04-28T15:13:28;20.10;99.90
37310;DHT22;23195;47.744;7.358;2023-04-28T15:16:29;20.30;99.90
37310;DHT22;23195;47.744;7.358;2023-04-28T15:19:24;20.50;99.90
37310;DHT22;23195;47.744;7.358;2023-04-28T15:21:50;20.40;99.90
37310;DHT22;23195;47.744;7.358;2023-04-28T15:24:18;20.40;99.90
37310;DHT22;23195;47.744;7.358;2023-04-28T15:26:44;20.30;99.90
37310;DHT22;23195;47.744;7.358;2023-04-28T15:29:10;20.10;99.90
37310;DHT22;23195;47.744;7.358;2023-04-28T15:31:36;20.10;99.90
37310;DHT22;23195;47.744;7.358;2023-04-28T15:34:02;20.10;99.90
37310;DHT22;23195;47.744;7.358;2023-04-28T15:36:35;20.00;99.90
37310;DHT22;23195;47.744;7.358;2023-04-28T15:39:02;20.00;99.90
37310;DHT22;23195;47.744;7.358;2023-04-28T15:41:31;19.80;99.90
37310;DHT22;23195;47.744;7.358;2023-04-28T15:43:57;19.80;99.90
37310;DHT22;23195;47.744;7.358;2023-04-28T15:46:27;19.80;99.90
37310;DHT22;23195;47.744;7.358;2023-04-28T15:48:53;19.80;99.90
37310;DHT22;23195;47.744;7.358;2023-04-28T15:51:19;19.70;99.90
37310;DHT22;23195;47.744;7.358;2023-04-28T15:53:45;19.70;99.90
37310;DHT22;23195;47.744;7.358;2023-04-28T15:56:11;19.50;99.90
37310;DHT22;23195;47.744;7.358;2023-04-28T15:58:37;19.30;99.90
37310;DHT22;23195;47.744;7.358;2023-04-28T16:01:02;19.00;99.90
37310;DHT22;23195;47.744;7.358;2023-04-28T16:03:28;18.90;99.90
37310;DHT22;23195;47.744;7.358;2023-04-28T16:05:54;18.80;99.90
37310;DHT22;23195;47.744;7.358;2023-04-28T16:08:21;18.60;99.90
37310;DHT22;23195;47.744;7.358;2023-04-28T16:10:50;18.60;99.90
37310;DHT22;23195;47.744;7.358;2023-04-28T16:13:20;18.50;99.90
37310;DHT22;23195;47.744;7.358;2023-04-28T16:15:46;18.40;99.90
37310;DHT22;23195;47.744;7.358;2023-04-28T16:18:14;18.40;99.90
37310;DHT22;23195;47.744;7.358;2023-04-28T16:20:40;18.30;99.90
37310;DHT22;23195;47.744;7.358;2023-04-28T16:23:06;18.20;99.90
37310;DHT22;23195;47.744;7.358;2023-04-28T16:25:32;18.30;99.90
37310;DHT22;23195;47.744;7.358;2023-04-28T16:27:59;18.20;99.90
37310;DHT22;23195;47.744;7.358;2023-04-28T16:30:25;18.30;99.90
37310;DHT22;23195;47.744;7.358;2023-04-28T16:32:51;18.30;99.90